Time;durP1;ratioP1;P1;durP2;ratioP2;P2;SDS_P1;SDS_P2;PMS_P1;PMS_P2;Temp;Humidity;BMP_temperature;BMP_pressure;BME280_temperature;BME280_humidity;BME280_pressure;Samples;Min_cycle;Max_cycle;Signal;HPM_P1;HPM_P2
2022/04/21 00:00:16;;;;;;;0.20;0.20;;;;;;;4.82;51.07;98110.34;5051668;28;20053;-64
2022/04/21 00:02:42;;;;;;;0.50;0.45;;;;;;;4.80;51.25;98119.75;5051908;28;20044;-63
2022/04/21 00:05:10;;;;;;;0.30;0.30;;;;;;;4.80;51.25;98115.16;5051589;28;20127;-64
2022/04/21 00:07:36;;;;;;;0.35;0.35;;;;;;;4.79;51.20;98118.09;5051617;28;20047;-65
2022/04/21 00:10:08;;;;;;;0.52;0.52;;;;;;;4.77;51.33;98115.59;5051813;28;20091;-64
2022/04/21 00:12:34;;;;;;;0.20;0.20;;;;;;;4.77;51.21;98115.59;5051695;28;20049;-65
2022/04/21 00:15:04;;;;;;;0.22;0.22;;;;;;;4.79;51.32;98110.78;5052072;28;20128;-64
2022/04/21 00:17:30;;;;;;;0.20;0.20;;;;;;;4.77;51.39;98117.47;5051742;28;20478;-65
2022/04/21 00:19:56;;;;;;;0.40;0.40;;;;;;;4.73;51.29;98115.19;5054175;28;20514;-65
2022/04/21 00:25:07;;;;;;;0.55;0.55;;;;;;;4.66;51.65;98110.81;5056331;28;20124;-66
2022/04/21 00:27:43;;;;;;;0.30;0.30;;;;;;;4.64;51.54;98108.31;5056214;28;20396;-65
2022/04/21 00:30:11;;;;;;;0.22;0.22;;;;;;;4.59;51.66;98105.38;5056708;28;20389;-66
2022/04/21 00:32:39;;;;;;;0.55;0.55;;;;;;;4.59;51.77;98099.13;5056195;28;20052;-65
2022/04/21 00:35:07;;;;;;;0.30;0.30;;;;;;;4.59;51.75;98101.84;5055363;28;20457;-64
2022/04/21 00:37:33;;;;;;;0.20;0.20;;;;;;;4.60;51.69;98100.81;5056433;28;20117;-65
2022/04/21 00:39:59;;;;;;;0.32;0.32;;;;;;;4.60;51.86;98103.53;5056035;28;20048;-65
2022/04/21 00:42:29;;;;;;;0.20;0.20;;;;;;;4.61;51.77;98097.00;5055924;28;20037;-66
2022/04/21 00:44:55;;;;;;;0.20;0.20;;;;;;;4.58;51.94;98095.59;5055805;28;20419;-64
2022/04/21 00:47:22;;;;;;;0.30;0.30;;;;;;;4.54;52.01;98099.78;5055803;28;20044;-65
2022/04/21 00:49:48;;;;;;;0.20;0.20;;;;;;;4.50;51.96;98096.63;5055481;28;20530;-64
2022/04/21 00:52:15;;;;;;;0.40;0.40;;;;;;;4.51;52.14;98100.19;5055339;28;20045;-64
2022/04/21 00:54:42;;;;;;;0.20;0.20;;;;;;;4.52;51.99;98108.13;5055469;28;20114;-62
2022/04/21 00:57:09;;;;;;;0.30;0.30;;;;;;;4.51;51.98;98097.47;5055587;28;20045;-65
2022/04/21 00:59:35;;;;;;;0.20;0.20;;;;;;;4.48;52.11;98098.72;5055307;28;20067;-62
2022/04/21 01:04:49;;;;;;;0.20;0.20;;;;;;;4.49;52.11;98092.25;5055592;28;20502;-64
2022/04/21 01:07:14;;;;;;;0.25;0.25;;;;;;;4.47;52.18;98104.38;5055384;28;20124;-64
2022/04/21 01:09:41;;;;;;;0.22;0.22;;;;;;;4.45;52.18;98099.16;5054929;28;20192;-64
2022/04/21 01:12:11;;;;;;;0.30;0.30;;;;;;;4.46;52.17;98089.97;5056476;28;20623;-62
2022/04/21 01:14:38;;;;;;;0.20;0.20;;;;;;;4.44;52.19;98085.78;5075068;28;20131;-65
2022/04/21 01:17:09;;;;;;;0.22;0.22;;;;;;;4.38;52.14;98090.19;5075256;28;20465;-66
2022/04/21 01:19:35;;;;;;;0.20;0.20;;;;;;;4.36;52.42;98095.00;5074750;28;20080;-65
2022/04/21 01:22:02;;;;;;;0.20;0.20;;;;;;;4.36;52.30;98106.72;5075235;28;20060;-66
2022/04/21 01:24:28;;;;;;;0.20;0.20;;;;;;;4.30;52.43;98104.00;5065407;28;20049;-64
2022/04/21 01:27:00;;;;;;;0.30;0.30;;;;;;;4.28;52.59;98087.91;5062980;28;20573;-64
2022/04/21 01:29:27;;;;;;;0.50;0.50;;;;;;;4.26;52.48;98105.47;5061641;28;20635;-64
2022/04/21 01:31:53;;;;;;;0.50;0.50;;;;;;;4.25;52.42;98099.19;5063239;28;20483;-64
2022/04/21 01:34:19;;;;;;;0.20;0.20;;;;;;;4.21;52.75;98098.78;5062108;28;20136;-64
2022/04/21 01:42:15;;;;;;;0.30;0.30;;;;;;;4.06;52.83;98102.78;5068216;28;20047;-62
2022/04/21 01:44:41;;;;;;;2.10;0.47;;;;;;;3.98;52.82;98098.41;5065817;28;20051;-63
2022/04/21 01:47:09;;;;;;;0.50;0.50;;;;;;;4.00;52.71;98096.31;5061941;28;20095;-63
2022/04/21 01:49:34;;;;;;;0.60;0.60;;;;;;;4.00;52.67;98099.84;5063600;28;20041;-64
2022/04/21 01:52:00;;;;;;;0.77;0.77;;;;;;;4.03;52.71;98104.03;5061582;28;20040;-64
2022/04/21 01:54:26;;;;;;;0.20;0.20;;;;;;;4.10;52.57;98106.75;5063354;28;20060;-64
2022/04/21 01:56:51;;;;;;;0.50;0.50;;;;;;;4.14;52.41;98118.88;5062862;28;20036;-67
2022/04/21 01:59:17;;;;;;;0.20;0.20;;;;;;;4.12;52.49;98107.38;5061602;28;20048;-67
2022/04/21 02:02:23;;;;;;;0.40;0.40;;;;;;;4.09;52.58;98103.19;5061385;28;20407;-66
2022/04/21 02:05:08;;;;;;;;;;;;;;;4.07;52.58;98104.47;5062006;28;20083;-63
2022/04/21 02:10:55;;;;;;;0.40;0.40;;;;;;;3.97;52.43;98113.03;5054291;28;20140;-64
2022/04/21 02:13:21;;;;;;;0.43;0.40;;;;;;;3.88;52.62;98108.84;5064055;28;20079;-63
2022/04/21 02:15:47;;;;;;;0.40;0.40;;;;;;;3.78;52.89;98123.66;5057626;28;20096;-65
2022/04/21 02:18:14;;;;;;;0.30;0.30;;;;;;;3.77;52.94;98122.00;5053646;28;20424;-63
2022/04/21 02:20:39;;;;;;;0.20;0.20;;;;;;;3.73;53.09;98128.91;5056428;28;20052;-63
2022/04/21 02:23:05;;;;;;;1.75;0.75;;;;;;;3.70;53.08;98128.50;5066563;28;20045;-65
2022/04/21 02:25:31;;;;;;;0.20;0.20;;;;;;;3.58;53.28;98139.94;5054354;28;20040;-66
2022/04/21 02:27:57;;;;;;;0.35;0.35;;;;;;;3.50;53.40;98143.69;5072876;28;20472;-65
2022/04/21 02:30:23;;;;;;;0.20;0.20;;;;;;;3.40;53.57;98137.84;5058772;28;20065;-64
2022/04/21 02:32:49;;;;;;;0.20;0.20;;;;;;;3.31;53.64;98137.19;5066023;28;20040;-65
2022/04/21 02:35:15;;;;;;;0.20;0.20;;;;;;;3.31;53.61;98130.91;5060755;28;20391;-68
2022/04/21 02:37:45;;;;;;;3.30;1.17;;;;;;;3.31;53.43;98129.03;5073107;28;20041;-63
2022/04/21 02:40:12;;;;;;;0.95;0.30;;;;;;;3.38;53.31;98141.78;5071929;28;20048;-64
2022/04/21 02:42:39;;;;;;;0.20;0.20;;;;;;;3.40;53.28;98145.97;5055491;28;20415;-66
2022/04/21 02:45:09;;;;;;;0.20;0.20;;;;;;;3.44;53.00;98147.22;5072340;28;20146;-65
2022/04/21 02:47:36;;;;;;;0.20;0.20;;;;;;;3.43;53.04;98152.84;5069370;28;20099;-65
2022/04/21 02:50:02;;;;;;;0.30;0.30;;;;;;;3.41;52.86;98149.50;5065537;28;20052;-65
2022/04/21 02:52:28;;;;;;;0.50;0.50;;;;;;;3.39;52.90;98157.88;5056921;28;20067;-65
2022/04/21 03:02:35;;;;;;;0.20;0.20;;;;;;;3.43;52.18;98175.41;5010917;28;20097;-64
2022/04/21 03:05:02;;;;;;;0.20;0.20;;;;;;;3.45;51.80;98170.59;5050334;28;20573;-63
2022/04/21 03:07:28;;;;;;;0.20;0.20;;;;;;;3.44;51.54;98179.78;5064143;28;20048;-63
2022/04/21 03:09:58;;;;;;;1.42;0.45;;;;;;;3.83;50.87;98177.38;5052645;28;20126;-63
2022/04/21 03:12:26;;;;;;;0.20;0.20;;;;;;;4.51;49.40;98179.88;5055144;28;20039;-62
2022/04/21 03:14:55;;;;;;;0.25;0.25;;;;;;;5.54;47.17;98180.16;5040230;28;20041;-62
2022/04/21 03:17:24;;;;;;;0.20;0.20;;;;;;;5.84;46.75;98182.28;5052754;28;20044;-62
2022/04/21 03:19:50;;;;;;;0.85;0.40;;;;;;;5.70;46.89;98190.53;5052945;28;20068;-63
2022/04/21 03:25:07;;;;;;;1.35;1.20;;;;;;;4.99;48.47;98188.75;5063740;28;20083;-64
2022/04/21 03:27:36;;;;;;;0.30;0.30;;;;;;;4.65;49.12;98198.88;5055943;28;20045;-64
2022/04/21 03:30:08;;;;;;;0.20;0.20;;;;;;;4.51;49.54;98204.34;5034611;28;20051;-64
2022/04/21 03:32:36;;;;;;;;;;;;;;;4.48;49.41;98202.03;5018781;28;20052;-64
2022/04/21 03:35:05;;;;;;;0.55;0.55;;;;;;;4.33;49.57;98206.88;5034025;28;20036;-64
2022/04/21 03:37:35;;;;;;;0.73;0.32;;;;;;;4.29;49.54;98208.31;5034535;28;20096;-65
2022/04/21 03:40:02;;;;;;;0.20;0.20;;;;;;;4.30;49.51;98209.97;5034622;28;20076;-66
2022/04/21 03:42:33;;;;;;;0.20;0.20;;;;;;;4.36;49.16;98220.88;5034166;28;20051;-64
2022/04/21 03:45:00;;;;;;;0.40;0.40;;;;;;;4.43;49.04;98212.72;5034658;28;20045;-65
2022/04/21 03:47:28;;;;;;;0.20;0.20;;;;;;;4.56;48.65;98228.16;5051216;28;20145;-65
2022/04/21 03:49:56;;;;;;;0.20;0.20;;;;;;;4.70;48.21;98212.69;5051006;28;20045;-65
2022/04/21 03:52:26;;;;;;;0.20;0.20;;;;;;;4.83;48.08;98220.81;5031964;28;20053;-66
2022/04/21 03:54:54;;;;;;;0.20;0.20;;;;;;;5.18;47.17;98216.94;5034247;28;20112;-66
2022/04/21 03:57:22;;;;;;;0.43;0.43;;;;;;;6.93;44.01;98228.38;5033591;28;20048;-66
2022/04/21 03:59:50;;;;;;;0.30;0.30;;;;;;;8.74;41.11;98199.38;5034023;28;20148;-65
2022/04/21 04:02:19;;;;;;;0.20;0.20;;;;;;;11.17;37.77;98200.03;5034457;28;20047;-65
2022/04/21 04:04:47;;;;;;;0.20;0.20;;;;;;;13.67;34.93;98205.31;5033604;28;20048;-65
2022/04/21 04:12:45;;;;;;;0.40;0.40;;;;;;;18.59;31.24;98214.19;5051931;28;20036;-65
2022/04/21 04:15:13;;;;;;;0.30;0.30;;;;;;;19.62;30.90;98215.97;5053082;28;20496;-65
2022/04/21 04:17:41;;;;;;;0.20;0.20;;;;;;;20.35;30.44;98218.94;5034203;28;20033;-67
2022/04/21 04:20:09;;;;;;;0.68;0.40;;;;;;;20.82;30.60;98213.09;5033543;28;20068;-64
2022/04/21 04:22:40;;;;;;;1.08;0.75;;;;;;;20.17;31.70;98222.69;5033805;28;20037;-66
2022/04/21 04:25:11;;;;;;;0.20;0.20;;;;;;;19.84;32.36;98220.84;5052214;28;20491;-65
2022/04/21 04:27:40;;;;;;;0.10;0.10;;;;;;;18.39;34.43;98221.72;5034185;28;20049;-64
2022/04/21 04:30:09;;;;;;;0.40;0.40;;;;;;;17.27;36.17;98236.69;5034134;28;20049;-66
2022/04/21 04:32:36;;;;;;;0.25;0.25;;;;;;;16.67;37.02;98233.31;5033806;28;20040;-65
2022/04/21 04:35:03;;;;;;;0.30;0.30;;;;;;;17.87;35.30;98229.88;5051516;28;20487;-65
2022/04/21 04:37:29;;;;;;;0.13;0.13;;;;;;;18.98;33.69;98238.06;5050561;28;20037;-65
2022/04/21 04:39:56;;;;;;;0.60;0.30;;;;;;;18.13;34.71;98229.59;5050221;28;20037;-64
2022/04/21 04:42:23;;;;;;;0.20;0.20;;;;;;;17.01;36.62;98230.53;5033920;28;20455;-64
2022/04/21 04:47:43;;;;;;;0.95;0.40;;;;;;;13.87;40.73;98236.88;5011060;28;20075;-65
2022/04/21 04:50:10;;;;;;;3.03;0.68;;;;;;;12.31;43.21;98247.09;5050184;28;20041;-64
2022/04/21 04:52:37;;;;;;;0.35;0.35;;;;;;;10.93;44.47;98254.38;5034029;28;20071;-64
2022/04/21 04:55:09;;;;;;;1.80;0.57;;;;;;;9.58;46.32;98263.97;5033763;28;20204;-65
2022/04/21 04:57:39;;;;;;;1.17;0.40;;;;;;;9.01;46.45;98276.41;5033599;28;20045;-66
2022/04/21 05:00:08;;;;;;;0.20;0.20;;;;;;;8.30;46.50;98298.13;5052290;28;20071;-65
2022/04/21 05:02:35;;;;;;;0.30;0.30;;;;;;;7.68;46.68;98279.22;5033650;28;20057;-65
2022/04/21 05:05:05;;;;;;;0.20;0.20;;;;;;;7.47;46.38;98280.53;5049107;28;20114;-64
2022/04/21 05:07:35;;;;;;;0.20;0.20;;;;;;;7.46;45.48;98282.41;5037235;28;20037;-69
2022/04/21 05:10:03;;;;;;;0.20;0.20;;;;;;;7.46;44.58;98281.56;5037562;28;20051;-69
2022/04/21 05:12:32;;;;;;;0.20;0.20;;;;;;;7.36;44.14;98284.81;5055172;28;20045;-64
2022/04/21 05:15:02;;;;;;;0.57;0.57;;;;;;;7.33;43.69;98297.06;5037821;28;20045;-64
2022/04/21 05:17:29;;;;;;;0.30;0.30;;;;;;;7.12;43.69;98316.59;5037561;28;20049;-66
2022/04/21 05:19:56;;;;;;;0.40;0.40;;;;;;;6.89;43.44;98295.38;5037160;28;20072;-64
2022/04/21 05:22:37;;;;;;;0.20;0.20;;;;;;;6.62;43.53;98290.97;5055233;28;20041;-65
2022/04/21 05:25:08;;;;;;;0.28;0.28;;;;;;;6.32;43.59;98315.34;5055053;28;20124;-65
2022/04/21 05:27:38;;;;;;;0.20;0.20;;;;;;;6.22;43.44;98315.81;5055165;28;20033;-68
2022/04/21 05:32:52;;;;;;;0.20;0.20;;;;;;;5.71;43.33;98311.22;5054537;28;20139;-66
2022/04/21 05:35:20;;;;;;;3.63;1.15;;;;;;;5.54;42.99;98319.03;5036089;28;20041;-66
2022/04/21 05:37:48;;;;;;;0.50;0.50;;;;;;;5.52;42.83;98321.97;5034144;28;20578;-64
2022/04/21 05:40:17;;;;;;;0.40;0.40;;;;;;;5.54;42.37;98311.69;5036401;28;20535;-66
2022/04/21 05:42:49;;;;;;;3.17;0.40;;;;;;;5.59;42.13;98327.38;5036423;28;20041;-64
2022/04/21 05:45:16;;;;;;;3.05;0.68;;;;;;;5.66;41.63;98335.56;5036045;28;20071;-67
2022/04/21 05:47:46;;;;;;;0.30;0.30;;;;;;;5.80;41.14;98329.00;5036419;28;20415;-64
2022/04/21 05:50:14;;;;;;;1.35;1.25;;;;;;;5.90;40.91;98317.63;5052907;28;20392;-65
2022/04/21 05:52:45;;;;;;;0.93;0.85;;;;;;;5.76;40.99;98350.38;5054586;28;20490;-65
2022/04/21 05:55:15;;;;;;;0.95;0.80;;;;;;;5.48;40.97;98339.78;5019940;28;20076;-64
2022/04/21 05:57:45;;;;;;;0.20;0.20;;;;;;;5.27;41.35;98349.06;5036262;28;20132;-65
2022/04/21 06:00:12;;;;;;;0.22;0.22;;;;;;;5.07;41.45;98365.41;5036149;28;20041;-65
2022/04/21 06:02:41;;;;;;;0.38;0.38;;;;;;;4.91;41.33;98367.47;5036131;28;20060;-66
2022/04/21 06:05:08;;;;;;;0.20;0.20;;;;;;;4.86;41.03;98367.28;5035788;28;20076;-66
2022/04/21 06:07:39;;;;;;;0.45;0.45;;;;;;;4.83;41.10;98356.81;5036077;28;20037;-67
2022/04/21 06:10:08;;;;;;;0.20;0.20;;;;;;;4.82;40.73;98354.31;5036003;28;20040;-64
2022/04/21 06:12:46;;;;;;;0.20;0.20;;;;;;;4.74;40.47;98369.78;5053703;28;20052;-65
2022/04/21 06:15:14;;;;;;;0.30;0.30;;;;;;;4.63;40.44;98367.69;5035856;28;20055;-65
2022/04/21 06:17:45;;;;;;;0.20;0.20;;;;;;;4.59;40.57;98366.41;5034490;28;20052;-66
2022/04/21 06:20:12;;;;;;;0.38;0.38;;;;;;;4.56;40.30;98370.41;5036113;28;20045;-68
2022/04/21 06:22:42;;;;;;;0.22;0.22;;;;;;;4.50;40.30;98371.22;5035923;28;20130;-66
2022/04/21 06:25:10;;;;;;;0.20;0.20;;;;;;;4.51;40.21;98367.47;5035813;28;20049;-64
2022/04/21 06:27:38;;;;;;;0.47;0.47;;;;;;;4.57;40.00;98388.38;5035880;28;20041;-64
2022/04/21 06:30:06;;;;;;;0.40;0.40;;;;;;;4.70;39.49;98367.72;5035705;28;20048;-65
2022/04/21 06:32:35;;;;;;;0.20;0.20;;;;;;;5.05;38.94;98381.09;5035916;28;20189;-64
2022/04/21 06:35:02;;;;;;;0.30;0.30;;;;;;;5.21;38.76;98379.81;5035420;28;20043;-65
2022/04/21 06:37:30;;;;;;;0.28;0.28;;;;;;;5.71;38.02;98373.88;5035417;28;20044;-66
2022/04/21 06:39:58;;;;;;;0.28;0.28;;;;;;;5.96;37.62;98391.19;5052033;28;20053;-64
2022/04/21 06:42:27;;;;;;;0.22;0.22;;;;;;;5.87;37.84;98389.72;5052274;28;20077;-65
2022/04/21 06:50:26;;;;;;;0.40;0.40;;;;;;;5.16;38.92;98398.69;5053414;28;20498;-64
2022/04/21 06:52:54;;;;;;;0.50;0.50;;;;;;;4.95;39.09;98413.31;5035556;28;20045;-70
2022/04/21 06:55:21;;;;;;;0.47;0.43;;;;;;;4.98;38.98;98412.94;5035410;28;20183;-66
2022/04/21 06:57:49;;;;;;;0.38;0.38;;;;;;;5.00;38.93;98419.81;5035335;28;20522;-65
2022/04/21 07:00:16;;;;;;;0.30;0.30;;;;;;;4.92;38.94;98398.28;5035641;28;20060;-67
2022/04/21 07:02:43;;;;;;;0.40;0.40;;;;;;;5.00;38.65;98421.72;5034698;28;20092;-64
2022/04/21 07:05:14;;;;;;;1.95;0.43;;;;;;;4.96;38.72;98418.56;5034536;28;20047;-64
2022/04/21 07:07:42;;;;;;;0.30;0.30;;;;;;;4.91;38.80;98437.38;5035268;28;20045;-64
2022/04/21 07:10:11;;;;;;;0.75;0.75;;;;;;;4.78;38.98;98424.59;5053152;28;20049;-65
2022/04/21 07:12:38;;;;;;;0.45;0.45;;;;;;;4.99;38.47;98430.91;5034766;28;20499;-66
2022/04/21 07:15:09;;;;;;;0.22;0.22;;;;;;;5.02;38.42;98436.78;5034769;28;20037;-63
2022/04/21 07:17:37;;;;;;;0.30;0.30;;;;;;;4.76;38.86;98442.19;5034634;28;20040;-65
2022/04/21 07:20:05;;;;;;;0.20;0.20;;;;;;;4.83;38.60;98427.56;5034607;28;20045;-65
2022/04/21 07:22:33;;;;;;;1.58;0.80;;;;;;;5.26;38.19;98432.59;5034892;28;20052;-64
2022/04/21 07:25:03;;;;;;;0.30;0.30;;;;;;;5.35;37.83;98433.22;5034782;28;20048;-66
2022/04/21 07:27:31;;;;;;;0.65;0.60;;;;;;;5.25;38.10;98449.97;5034348;28;20103;-65
2022/04/21 07:29:58;;;;;;;0.30;0.30;;;;;;;5.32;37.79;98439.09;5052170;28;20071;-64
2022/04/21 07:32:25;;;;;;;0.30;0.30;;;;;;;5.21;37.78;98465.06;5034428;28;20047;-65
2022/04/21 07:34:56;;;;;;;0.50;0.50;;;;;;;4.97;38.13;98462.94;5034187;28;20040;-65
2022/04/21 07:37:26;;;;;;;0.20;0.20;;;;;;;4.88;38.30;98445.97;5034559;28;20488;-65
2022/04/21 07:39:57;;;;;;;0.40;0.40;;;;;;;4.83;38.30;98443.03;5034512;28;20143;-65
2022/04/21 07:42:24;;;;;;;0.55;0.55;;;;;;;4.81;38.27;98456.00;5034271;28;20041;-65
2022/04/21 07:44:53;;;;;;;0.50;0.50;;;;;;;4.68;38.38;98470.41;5034369;28;20045;-64
2022/04/21 07:47:23;;;;;;;0.80;0.40;;;;;;;4.42;38.55;98455.69;5034193;28;20416;-65
2022/04/21 07:49:51;;;;;;;0.50;0.50;;;;;;;4.20;38.71;98474.84;5034221;28;20139;-65
2022/04/21 07:55:20;;;;;;;0.28;0.28;;;;;;;4.03;38.69;98454.47;5053265;28;20040;-65
2022/04/21 07:57:48;;;;;;;0.35;0.35;;;;;;;4.18;38.51;98468.78;5071395;28;20033;-66
2022/04/21 08:00:17;;;;;;;0.50;0.50;;;;;;;4.27;38.11;98465.88;5070069;28;20045;-66
2022/04/21 08:02:46;;;;;;;0.30;0.30;;;;;;;4.19;38.07;98459.56;5052725;28;20492;-65
2022/04/21 08:05:17;;;;;;;0.50;0.50;;;;;;;4.25;38.05;98462.53;5052119;28;20117;-67
2022/04/21 08:07:46;;;;;;;0.43;0.43;;;;;;;4.21;37.98;98483.81;5070752;28;20072;-65
2022/04/21 08:10:15;;;;;;;0.22;0.22;;;;;;;4.19;37.87;98488.63;5052684;28;20048;-66
2022/04/21 08:12:46;;;;;;;0.30;0.30;;;;;;;4.12;38.07;98479.59;5052711;28;20040;-67
2022/04/21 08:15:22;;;;;;;0.98;0.52;;;;;;;4.06;37.92;98489.38;5047371;28;20495;-66
2022/04/21 08:17:49;;;;;;;0.38;0.38;;;;;;;3.98;37.93;98495.00;5058203;28;20048;-66
2022/04/21 08:20:16;;;;;;;0.70;0.70;;;;;;;4.02;37.86;98512.59;5065047;28;20040;-66
2022/04/21 08:22:44;;;;;;;0.52;0.52;;;;;;;4.08;37.52;98494.63;5050009;28;20043;-67
2022/04/21 08:33:27;;;;;;;0.20;0.20;;;;;;;4.16;36.92;98517.03;5063480;28;20139;-67
2022/04/21 08:35:58;;;;;;;0.30;0.30;;;;;;;4.07;37.14;98515.53;5048269;28;20036;-66
2022/04/21 08:38:29;;;;;;;0.20;0.20;;;;;;;4.10;36.95;98530.59;5060201;28;20500;-67
2022/04/21 08:40:57;;;;;;;0.20;0.20;;;;;;;3.99;37.22;98523.81;5052826;28;20041;-67
2022/04/21 08:43:27;;;;;;;0.20;0.20;;;;;;;3.90;37.22;98549.47;5052534;28;20051;-67
2022/04/21 08:45:54;;;;;;;0.20;0.20;;;;;;;3.68;37.52;98538.66;5052513;28;20494;-66
2022/04/21 08:48:24;;;;;;;0.38;0.38;;;;;;;3.69;37.36;98534.91;5061200;28;20155;-66
2022/04/21 08:50:53;;;;;;;0.77;0.30;;;;;;;3.84;37.21;98551.97;5066840;28;20531;-68
2022/04/21 08:53:22;;;;;;;0.30;0.30;;;;;;;3.83;36.84;98557.59;5059643;28;20123;-66
2022/04/21 08:55:50;;;;;;;0.75;0.30;;;;;;;3.73;36.74;98560.66;5060378;28;20144;-69
2022/04/21 08:58:20;;;;;;;1.13;1.05;;;;;;;3.72;36.76;98556.25;5059795;28;20036;-69
2022/04/21 09:00:47;;;;;;;0.30;0.30;;;;;;;3.84;36.64;98557.41;5054178;28;20052;-69
2022/04/21 09:03:15;;;;;;;0.50;0.50;;;;;;;3.98;36.37;98555.59;5073813;28;20075;-67
2022/04/21 09:05:44;;;;;;;0.28;0.28;;;;;;;4.13;36.31;98562.81;5055564;28;20056;-68
2022/04/21 09:08:24;;;;;;;1.13;0.82;;;;;;;4.27;35.89;98548.25;5074175;28;20037;-67
2022/04/21 09:11:10;;;;;;;0.20;0.20;;;;;;;4.27;35.79;98580.88;5056242;28;20044;-67
2022/04/21 09:13:43;;;;;;;0.40;0.40;;;;;;;4.22;36.02;98575.19;5074214;28;20068;-67
2022/04/21 09:16:11;;;;;;;0.40;0.40;;;;;;;4.20;35.87;98575.38;5074270;28;20051;-68
2022/04/21 09:18:46;;;;;;;0.20;0.20;;;;;;;4.24;35.79;98564.97;5066008;28;20036;-66
2022/04/21 09:21:15;;;;;;;0.82;0.82;;;;;;;4.23;35.86;98576.88;5060205;28;20492;-67
2022/04/21 09:23:45;;;;;;;0.28;0.28;;;;;;;4.25;35.83;98582.09;5057821;28;20080;-67
2022/04/21 09:26:20;;;;;;;0.35;0.35;;;;;;;4.27;35.70;98585.47;5039743;28;20049;-68
2022/04/21 09:29:02;;;;;;;0.30;0.30;;;;;;;4.26;35.81;98583.81;5064328;28;20070;-66
2022/04/21 09:31:31;;;;;;;13.20;0.73;;;;;;;4.26;35.99;98589.22;5056658;28;20044;-67
2022/04/21 09:33:59;;;;;;;0.30;0.30;;;;;;;4.27;35.82;98590.88;5043177;28;20135;-66
2022/04/21 09:36:29;;;;;;;0.45;0.43;;;;;;;4.22;35.83;98583.34;5047952;28;20097;-64
2022/04/21 09:39:02;;;;;;;0.30;0.30;;;;;;;4.23;35.68;98605.94;5053887;28;20044;-68
2022/04/21 09:41:30;;;;;;;0.40;0.40;;;;;;;4.19;35.84;98598.16;5054178;28;20041;-67
2022/04/21 09:46:59;;;;;;;0.57;0.57;;;;;;;4.01;36.00;98604.09;5034723;28;20044;-67
2022/04/21 09:49:38;;;;;;;0.30;0.30;;;;;;;4.04;35.92;98600.16;5072708;28;20475;-66
2022/04/21 09:52:06;;;;;;;0.20;0.20;;;;;;;3.94;35.89;98586.09;5054992;28;20044;-66
2022/04/21 09:54:36;;;;;;;1.52;0.55;;;;;;;3.82;35.90;98594.75;5071792;28;20034;-68
2022/04/21 09:57:03;;;;;;;0.85;0.85;;;;;;;3.69;35.98;98600.09;5055351;28;20037;-66
2022/04/21 09:59:35;;;;;;;0.65;0.65;;;;;;;3.73;36.02;98604.09;5071398;28;20045;-68
2022/04/21 10:02:05;;;;;;;0.63;0.63;;;;;;;3.93;35.61;98611.56;5064388;28;20529;-68
2022/04/21 10:04:32;;;;;;;0.22;0.22;;;;;;;4.08;35.39;98601.44;5072995;28;20154;-67
2022/04/21 10:07:01;;;;;;;0.32;0.32;;;;;;;4.23;35.10;98608.66;5055000;28;20044;-66
2022/04/21 10:09:31;;;;;;;0.50;0.50;;;;;;;4.34;35.01;98610.81;5055143;28;20044;-66
2022/04/21 10:12:00;;;;;;;0.20;0.20;;;;;;;4.30;34.94;98631.25;5071928;28;20411;-66
2022/04/21 10:14:28;;;;;;;0.20;0.20;;;;;;;4.15;35.33;98637.66;5071215;28;20410;-67
2022/04/21 10:16:58;;;;;;;1.00;0.50;;;;;;;4.06;35.55;98621.69;5071543;28;20041;-66
2022/04/21 10:19:26;;;;;;;0.30;0.30;;;;;;;4.03;35.46;98628.34;5073004;28;20040;-67
2022/04/21 10:21:56;;;;;;;0.40;0.40;;;;;;;4.02;35.19;98623.97;5073023;28;20048;-65
2022/04/21 10:24:27;;;;;;;0.30;0.30;;;;;;;3.98;35.30;98649.84;5054945;28;20040;-69
2022/04/21 10:26:55;;;;;;;0.30;0.30;;;;;;;4.08;35.17;98620.47;5054735;28;20502;-67
2022/04/21 10:29:23;;;;;;;0.70;0.57;;;;;;;4.15;35.05;98624.06;5049975;28;20518;-66
2022/04/21 10:31:49;;;;;;;0.22;0.22;;;;;;;4.17;34.88;98651.88;5051823;28;20036;-66
2022/04/21 10:34:37;;;;;;;0.20;0.20;;;;;;;4.11;35.11;98636.38;5050200;28;20224;-67
2022/04/21 10:37:19;;;;;;;0.80;0.45;;;;;;;4.03;34.82;98623.78;5050840;28;20403;-67
2022/04/21 10:40:10;;;;;;;0.20;0.20;;;;;;;3.89;35.18;98634.72;5057862;28;20041;-66
2022/04/21 10:42:58;;;;;;;0.20;0.20;;;;;;;3.89;35.29;98651.88;5050331;28;20417;-69
2022/04/21 10:45:36;;;;;;;0.22;0.22;;;;;;;3.90;35.16;98650.84;5050773;28;20479;-72
2022/04/21 10:48:12;;;;;;;0.30;0.30;;;;;;;3.89;35.14;98645.56;5056261;28;20040;-69
2022/04/21 10:50:42;;;;;;;0.30;0.30;;;;;;;3.93;34.92;98645.00;5056209;28;20124;-69
2022/04/21 10:58:47;;;;;;;0.20;0.20;;;;;;;3.85;34.80;98656.00;5066461;28;20485;-67
2022/04/21 11:01:28;;;;;;;0.65;0.40;;;;;;;3.84;34.63;98652.47;5045108;28;20055;-69
2022/04/21 11:04:18;;;;;;;0.30;0.30;;;;;;;3.88;34.60;98636.59;5050728;28;20070;-68
2022/04/21 11:07:06;;;;;;;0.30;0.30;;;;;;;3.97;34.55;98651.72;5052759;28;20043;-67
2022/04/21 11:09:41;;;;;;;0.30;0.30;;;;;;;4.06;34.62;98644.25;5044020;28;20048;-68
2022/04/21 11:12:12;;;;;;;0.30;0.30;;;;;;;4.11;34.56;98652.69;5052220;28;20048;-66
2022/04/21 11:14:39;;;;;;;0.20;0.20;;;;;;;4.16;34.21;98643.94;5052693;28;20048;-68
2022/04/21 11:17:08;;;;;;;0.20;0.20;;;;;;;4.15;34.31;98648.53;5052368;28;20570;-68
2022/04/21 11:19:40;;;;;;;0.40;0.40;;;;;;;4.06;34.38;98646.97;5058570;28;20044;-67
2022/04/21 11:22:07;;;;;;;0.75;0.50;;;;;;;4.00;34.67;98653.19;5049744;28;20079;-67
2022/04/21 11:25:04;;;;;;;0.50;0.50;;;;;;;4.03;34.53;98659.09;5051954;28;20531;-68
2022/04/21 11:27:37;;;;;;;0.45;0.45;;;;;;;4.09;34.49;98649.28;5051841;28;20170;-69
2022/04/21 11:30:06;;;;;;;0.30;0.30;;;;;;;4.15;34.35;98650.38;5062721;28;20045;-70
2022/04/21 11:32:32;;;;;;;0.20;0.20;;;;;;;4.25;34.51;98660.94;5059876;28;20573;-70
2022/04/21 11:35:04;;;;;;;0.45;0.40;;;;;;;4.26;34.18;98649.84;5053229;28;20072;-69
2022/04/21 11:37:50;;;;;;;7.82;0.50;;;;;;;4.27;34.53;98664.28;5051132;28;20102;-67
2022/04/21 11:40:20;;;;;;;0.22;0.22;;;;;;;4.26;34.51;98658.00;5051314;28;20044;-66
2022/04/21 11:42:49;;;;;;;0.90;0.90;;;;;;;4.25;34.45;98656.31;5034401;28;20063;-67
2022/04/21 11:45:35;;;;;;;1.00;0.75;;;;;;;4.26;34.41;98668.06;5060753;28;20044;-67
2022/04/21 11:48:02;;;;;;;0.30;0.30;;;;;;;4.14;34.46;98665.03;5053101;28;20044;-65
2022/04/21 11:50:31;;;;;;;0.30;0.30;;;;;;;4.09;34.48;98659.34;5051401;28;20048;-67
2022/04/21 11:53:10;;;;;;;0.50;0.50;;;;;;;4.08;34.58;98653.06;5064987;28;20499;-66
2022/04/21 11:55:38;;;;;;;0.20;0.20;;;;;;;4.13;34.58;98666.91;5034967;28;20060;-65
2022/04/21 11:58:06;;;;;;;2.40;0.40;;;;;;;4.10;34.57;98670.00;5052788;28;20044;-67
2022/04/21 12:08:48;;;;;;;0.20;0.20;;;;;;;4.07;34.35;98675.00;5049671;28;19942;-66
2022/04/21 12:11:22;;;;;;;0.40;0.40;;;;;;;3.96;34.10;98681.78;5031373;28;20048;-68
2022/04/21 12:13:50;;;;;;;0.50;0.50;;;;;;;3.81;34.18;98679.16;5063319;28;20469;-66
2022/04/21 12:16:37;;;;;;;0.22;0.22;;;;;;;3.75;34.33;98675.34;5043868;28;20071;-65
2022/04/21 12:19:10;;;;;;;0.25;0.25;;;;;;;3.71;34.34;98663.22;5037498;28;20060;-66
2022/04/21 12:21:36;;;;;;;0.20;0.20;;;;;;;3.82;34.43;98675.41;5058429;28;20460;-67
2022/04/21 12:24:16;;;;;;;0.30;0.30;;;;;;;3.97;34.08;98673.44;5052615;28;20037;-66
2022/04/21 12:26:49;;;;;;;0.30;0.30;;;;;;;4.05;33.94;98680.66;5048173;28;20041;-66
2022/04/21 12:29:18;;;;;;;0.30;0.30;;;;;;;4.03;33.97;98672.69;5052723;28;20213;-66
2022/04/21 12:31:54;;;;;;;4.90;0.50;;;;;;;4.02;33.82;98670.16;5044953;28;20052;-65
2022/04/21 12:34:27;;;;;;;0.20;0.20;;;;;;;4.01;34.01;98672.03;5054471;28;20545;-68
2022/04/21 12:37:03;;;;;;;0.30;0.30;;;;;;;3.98;34.16;98669.69;5063812;28;20044;-65
2022/04/21 12:39:32;;;;;;;0.45;0.40;;;;;;;3.98;33.99;98663.44;5049431;28;20517;-66
2022/04/21 12:42:03;;;;;;;0.30;0.30;;;;;;;4.07;33.85;98677.72;5049111;28;20517;-68
2022/04/21 12:44:30;;;;;;;0.20;0.20;;;;;;;4.06;34.00;98686.91;5061840;28;20045;-67
2022/04/21 12:47:12;;;;;;;0.35;0.35;;;;;;;3.99;34.13;98670.53;5052326;28;20044;-68
2022/04/21 12:49:55;;;;;;;0.22;0.22;;;;;;;4.10;33.81;98680.88;5059830;28;20040;-69
2022/04/21 12:52:35;;;;;;;0.50;0.50;;;;;;;4.06;33.94;98690.44;5067207;28;20041;-70
2022/04/21 12:55:27;;;;;;;0.28;0.28;;;;;;;4.02;33.87;98678.31;5047794;28;20067;-69
2022/04/21 12:58:11;;;;;;;0.32;0.32;;;;;;;4.03;34.25;98677.25;5052118;28;20041;-70
2022/04/21 13:00:49;;;;;;;0.20;0.20;;;;;;;4.08;34.09;98688.41;5056242;28;20475;-70
2022/04/21 13:03:18;;;;;;;0.20;0.20;;;;;;;4.09;34.09;98681.91;5033024;28;20041;-68